createdAt,value
2023-01-03T00:00:31.869Z,4.00
2023-01-03T00:05:57.397Z,4.60
2023-01-03T00:11:23.698Z,5.95
2023-01-03T00:16:46.116Z,6.67
2023-01-03T00:22:08.818Z,6.83
2023-01-03T00:27:32.764Z,7.60
2023-01-03T00:32:55.069Z,6.73
2023-01-03T00:38:17.291Z,5.75
2023-01-03T00:43:39.853Z,5.80
2023-01-03T00:49:02.301Z,6.13
2023-01-03T00:54:26.613Z,6.27
2023-01-03T00:59:49.019Z,5.70
2023-01-03T01:05:12.744Z,4.67
2023-01-03T01:10:36.254Z,4.87
2023-01-03T01:15:58.485Z,4.27
2023-01-03T01:21:27.947Z,3.37
2023-01-03T01:26:50.786Z,3.57
2023-01-03T01:32:13.537Z,3.30
2023-01-03T01:37:35.783Z,2.97
2023-01-03T01:43:16.527Z,2.73
2023-01-03T01:48:38.695Z,2.17
2023-01-03T01:54:02.604Z,2.67
2023-01-03T01:59:28.988Z,2.63
2023-01-03T02:04:55.286Z,2.90
2023-01-03T02:10:18.552Z,3.30
2023-01-03T02:16:07.816Z,4.10
2023-01-03T02:21:46.535Z,3.65
2023-01-03T02:27:16.511Z,3.93
2023-01-03T02:38:05.784Z,2.80
2023-01-03T02:49:06.300Z,2.00
2023-01-03T02:54:33.159Z,1.50
2023-01-03T03:00:10.175Z,1.82
2023-01-03T03:05:52.378Z,1.80
2023-01-03T03:11:32.608Z,1.72
2023-01-03T03:16:59.889Z,1.60
2023-01-03T03:23:18.364Z,1.27
2023-01-03T03:28:44.684Z,1.30
2023-01-03T03:34:14.467Z,1.80
2023-01-03T03:39:56.495Z,1.07
2023-01-03T03:45:26.332Z,1.00
2023-01-03T03:50:59.421Z,1.10
2023-01-03T03:56:31.195Z,0.80
2023-01-03T04:01:55.946Z,1.07
2023-01-03T04:07:19.150Z,1.37
2023-01-03T04:12:41.429Z,0.97
2023-01-03T04:18:03.948Z,1.47
2023-01-03T04:23:26.124Z,1.30
2023-01-03T04:28:48.567Z,1.30
2023-01-03T04:34:10.855Z,1.20
2023-01-03T04:39:33.056Z,1.43
2023-01-03T04:44:55.254Z,1.73
2023-01-03T04:50:17.771Z,1.80
2023-01-03T04:55:40.581Z,1.87
2023-01-03T05:01:09.061Z,1.77
2023-01-03T05:06:32.264Z,1.87
2023-01-03T05:11:55.151Z,2.07
2023-01-03T05:17:17.410Z,1.90
2023-01-03T05:22:57.677Z,1.60
2023-01-03T05:28:20.390Z,1.63
2023-01-03T05:33:44.944Z,1.57
2023-01-03T05:39:07.128Z,1.65
2023-01-03T05:44:29.449Z,1.50
2023-01-03T05:49:51.626Z,1.53
2023-01-03T05:55:14.069Z,1.13
2023-01-03T06:00:36.429Z,1.20
2023-01-03T06:05:58.635Z,1.30
2023-01-03T06:11:26.423Z,1.50
2023-01-03T06:17:06.781Z,2.03
2023-01-03T06:27:46.091Z,3.97
2023-01-03T06:33:08.417Z,4.00
2023-01-03T06:38:30.616Z,4.30
2023-01-03T06:43:53.240Z,3.40
2023-01-03T06:49:40.630Z,3.02
2023-01-03T06:55:03.507Z,3.10
2023-01-03T07:00:26.806Z,3.80
2023-01-03T07:05:49.080Z,3.40
2023-01-03T07:11:11.487Z,3.20
2023-01-03T07:16:38.141Z,3.47
2023-01-03T07:22:00.328Z,3.30
2023-01-03T07:27:22.533Z,5.47
2023-01-03T07:32:44.951Z,3.70
2023-01-03T07:38:07.285Z,2.90
2023-01-03T07:43:39.791Z,2.58
2023-01-03T07:49:11.180Z,2.03
2023-01-03T07:54:29.690Z,1.95
2023-01-03T07:59:52.194Z,2.30
2023-01-03T08:05:14.650Z,2.60
2023-01-03T08:10:54.826Z,2.57
2023-01-03T08:16:18.633Z,2.83
2023-01-03T08:21:41.353Z,3.23
2023-01-03T08:27:05.416Z,3.23
2023-01-03T08:32:28.340Z,3.50
2023-01-03T08:37:51.175Z,3.15
2023-01-03T08:43:16.127Z,3.60
2023-01-03T08:48:40.355Z,3.12
2023-01-03T08:54:03.231Z,2.87
2023-01-03T08:59:25.735Z,2.23
2023-01-03T09:04:48.015Z,2.30
2023-01-03T09:10:10.369Z,2.58
2023-01-03T09:15:33.193Z,2.03
2023-01-03T09:20:57.276Z,2.50
2023-01-03T09:26:20.088Z,2.00
2023-01-03T09:31:42.528Z,1.93
2023-01-03T09:37:04.841Z,1.90
2023-01-03T09:42:48.616Z,2.33
2023-01-03T09:48:12.812Z,2.30
2023-01-03T09:54:02.616Z,2.37
2023-01-03T09:59:53.435Z,1.83
2023-01-03T10:05:21.667Z,1.87
2023-01-03T10:11:02.428Z,1.77
2023-01-03T10:16:48.608Z,1.42
2023-01-03T10:22:32.763Z,1.80
2023-01-03T10:27:59.647Z,1.93
2023-01-03T10:33:50.550Z,1.32
2023-01-03T10:39:24.003Z,1.60
2023-01-03T10:44:48.200Z,1.42
2023-01-03T10:50:14.665Z,3.37
2023-01-03T10:55:38.179Z,1.57
2023-01-03T11:01:01.202Z,1.62
2023-01-03T11:06:27.981Z,2.00
2023-01-03T11:12:00.714Z,1.82
2023-01-03T11:17:26.618Z,1.83
2023-01-03T11:23:08.078Z,2.33
2023-01-03T11:28:41.107Z,2.33
2023-01-03T11:40:23.893Z,2.00
2023-01-03T11:46:19.580Z,2.50
2023-01-03T11:51:55.466Z,2.43
2023-01-03T11:57:22.538Z,1.57
2023-01-03T12:03:23.186Z,1.90
2023-01-03T12:08:50.840Z,1.65
2023-01-03T12:14:26.991Z,1.83
2023-01-03T12:25:50.540Z,1.50
2023-01-03T12:31:38.012Z,1.37
2023-01-03T12:37:08.982Z,1.30
2023-01-03T12:42:39.309Z,1.82
2023-01-03T12:48:19.051Z,1.85
2023-01-03T12:54:25.667Z,1.97
2023-01-03T13:00:14.484Z,2.12
2023-01-03T13:05:56.093Z,1.67
2023-01-03T13:11:29.068Z,1.50
2023-01-03T13:16:57.861Z,1.67
2023-01-03T13:22:42.955Z,1.80
2023-01-03T13:28:30.786Z,2.25
2023-01-03T13:34:15.460Z,2.22
2023-01-03T13:45:39.850Z,2.00
2023-01-03T13:51:22.792Z,2.58
2023-01-03T13:56:59.124Z,3.37
2023-01-03T14:02:32.529Z,1.98
2023-01-03T14:08:21.867Z,1.95
2023-01-03T14:13:57.094Z,1.90
2023-01-03T14:19:41.301Z,2.33
2023-01-03T14:25:10.782Z,1.95
2023-01-03T14:30:44.362Z,2.40
2023-01-03T14:36:22.706Z,2.30
2023-01-03T14:41:56.163Z,2.95
2023-01-03T14:47:21.589Z,3.30
2023-01-03T14:52:47.624Z,3.65
2023-01-03T14:58:12.568Z,3.53
2023-01-03T15:03:38.385Z,2.55
2023-01-03T15:09:04.889Z,2.90
2023-01-03T15:14:30.715Z,3.02
2023-01-03T15:19:56.438Z,3.45
2023-01-03T15:25:35.164Z,2.90
2023-01-03T15:31:02.025Z,2.95
2023-01-03T15:36:26.538Z,2.60
2023-01-03T15:42:42.985Z,3.95
2023-01-03T15:47:36.948Z,2.60
2023-01-03T15:53:00.052Z,2.77
2023-01-03T15:58:23.005Z,4.00
2023-01-03T16:03:47.482Z,3.27
2023-01-03T16:09:10.285Z,3.20
2023-01-03T16:14:37.497Z,3.43
2023-01-03T16:19:59.950Z,4.00
2023-01-03T16:25:25.999Z,3.90
2023-01-03T16:30:49.082Z,4.28
2023-01-03T16:36:12.649Z,4.15
2023-01-03T16:41:35.055Z,5.03
2023-01-03T16:46:58.106Z,4.47
2023-01-03T16:52:22.734Z,4.50
2023-01-03T16:57:50.201Z,4.13
2023-01-03T17:03:09.107Z,3.90
2023-01-03T17:08:50.121Z,4.57
2023-01-03T17:14:16.389Z,4.10
2023-01-03T17:20:03.273Z,4.60
2023-01-03T17:25:04.985Z,4.20
2023-01-03T17:30:29.830Z,4.45
2023-01-03T17:35:53.351Z,4.78
2023-01-03T17:41:17.487Z,4.40
2023-01-03T17:46:58.962Z,4.07
2023-01-03T17:52:26.161Z,5.47
2023-01-03T17:57:48.807Z,4.97
2023-01-03T18:03:12.273Z,4.87
2023-01-03T18:08:37.569Z,5.43
2023-01-03T18:14:01.458Z,4.57
2023-01-03T18:19:24.184Z,4.75
2023-01-03T18:24:47.867Z,5.22
2023-01-03T18:30:10.523Z,5.30
2023-01-03T18:35:38.060Z,5.58
2023-01-03T18:41:04.805Z,5.60
2023-01-03T18:46:29.468Z,5.03
2023-01-03T18:51:52.519Z,4.97
2023-01-03T18:57:17.102Z,4.92
2023-01-03T19:02:42.067Z,5.00
2023-01-03T19:08:06.892Z,5.28
2023-01-03T19:13:54.684Z,5.35
2023-01-03T19:19:18.398Z,5.10
2023-01-03T19:24:47.042Z,5.28
2023-01-03T19:30:11.393Z,4.63
2023-01-03T19:35:34.645Z,5.30
2023-01-03T19:40:58.360Z,4.80
2023-01-03T19:46:23.131Z,4.47
2023-01-03T19:51:45.664Z,4.60
2023-01-03T19:57:10.698Z,5.42
2023-01-03T20:02:43.362Z,4.93
2023-01-03T20:08:11.763Z,5.47
2023-01-03T20:13:38.122Z,5.73
2023-01-03T20:19:00.455Z,5.97
2023-01-03T20:24:32.831Z,5.30
2023-01-03T20:29:56.124Z,5.08
2023-01-03T20:40:45.121Z,5.60
2023-01-03T20:46:10.230Z,5.77
2023-01-03T20:51:32.636Z,5.80
2023-01-03T20:56:54.996Z,6.60
2023-01-03T21:02:17.936Z,7.20
2023-01-03T21:08:00.935Z,6.83
2023-01-03T21:13:24.045Z,7.20
2023-01-03T21:18:46.302Z,6.22
2023-01-03T21:24:08.598Z,5.45
2023-01-03T21:29:31.343Z,5.70
2023-01-03T21:34:53.784Z,5.80
2023-01-03T21:40:26.060Z,5.80
2023-01-03T21:45:53.693Z,5.40
2023-01-03T21:51:28.638Z,6.50
2023-01-03T21:56:46.415Z,6.13
2023-01-03T22:02:27.119Z,6.13
2023-01-03T22:13:09.775Z,4.80
2023-01-03T22:18:32.128Z,5.43
2023-01-03T22:23:55.212Z,6.70
2023-01-03T22:29:17.535Z,5.90
2023-01-03T22:34:39.792Z,6.25
2023-01-03T22:40:02.562Z,5.85
2023-01-03T22:45:25.735Z,8.13
2023-01-03T22:50:48.775Z,8.48
2023-01-03T22:56:11.855Z,7.75
2023-01-03T23:01:36.003Z,7.35
2023-01-03T23:06:59.611Z,7.90
2023-01-03T23:12:39.577Z,8.35
2023-01-03T23:18:01.812Z,8.70
2023-01-03T23:23:24.618Z,7.83
2023-01-03T23:28:46.928Z,7.92
2023-01-03T23:34:10.192Z,7.97
2023-01-03T23:39:34.364Z,7.72
2023-01-03T23:44:56.654Z,8.53
2023-01-03T23:50:19.014Z,8.70
2023-01-03T23:55:42.503Z,8.88
